Pittsburgh, Pennsylvania
Traffic Map
Current Weather Conditions
Pittsburgh, Pennsylvania
Clear
Clear
71°
Feels Like: 71°
Wind Chill: 71° Ceiling: Unl
Heat Index: 71° Visibility: 10mi
Dew Point: 51° Wind: 5mph
Humidity: 49% Direction: 290° (WNW)
Pressure: 29.99in Gusts: 0mph
Raw Report DataKAGC 050353Z AUTO 29004KT 10SM CLR 22/11 A2999 RMK AO2 SLP153 T02170106 TSNO
Traffic Incident Summary
Active as of:
Severity:
Category:
InformationThere was an issue retrieving the traffic information for this location. Please try a different location or try again shortly.
Advertisements
Track Severe Weather on mobile